Time;durP1;ratioP1;P1;durP2;ratioP2;P2;SDS_P1;SDS_P2;PMS_P1;PMS_P2;Temp;Humidity;BMP_temperature;BMP_pressure;BME280_temperature;BME280_humidity;BME280_pressure;Samples;Min_cycle;Max_cycle;Signal;HPM_P1;HPM_P2
2023/01/02 00:00:39;;;;;;;;;;;;;;;10.44;100.00;99388.44;4302071;33;19961;-73
2023/01/02 00:03:22;;;;;;;;;;;;;;;10.41;100.00;99388.94;4314074;33;19962;-73
2023/01/02 00:05:48;;;;;;;;;;;;;;;10.43;100.00;99378.72;4318529;33;20321;-72
2023/01/02 00:08:15;;;;;;;;;;;;;;;10.48;100.00;99384.22;4318204;33;19961;-73
2023/01/02 00:10:42;;;;;;;;;;;;;;;10.60;100.00;99380.66;4311930;33;19949;-72
2023/01/02 00:13:08;;;;;;;;;;;;;;;10.54;100.00;99383.25;4312882;33;19945;-72
2023/01/02 00:15:35;;;;;;;;;;;;;;;10.57;100.00;99397.31;4319505;33;20166;-72
2023/01/02 00:18:01;;;;;;;;;;;;;;;10.60;100.00;99391.44;4319562;33;20016;-73
2023/01/02 00:20:27;;;;;;;;;;;;;;;10.64;100.00;99387.19;4318450;33;19972;-73
2023/01/02 00:23:00;;;;;;;;;;;;;;;10.56;100.00;99376.81;4321869;33;19956;-73
2023/01/02 00:25:27;;;;;;;;;;;;;;;10.65;100.00;99372.69;4314372;33;19963;-73
2023/01/02 00:27:55;;;;;;;;;;;;;;;10.52;100.00;99379.97;4317953;33;19964;-73
2023/01/02 00:30:21;;;;;;;;;;;;;;;10.59;100.00;99379.03;4285766;33;19951;-73
2023/01/02 00:32:47;;;;;;;;;;;;;;;10.76;100.00;99379.88;4268040;33;20514;-73
2023/01/02 00:35:14;;;;;;;;;;;;;;;10.62;100.00;99373.16;4258650;33;20072;-72
2023/01/02 00:37:40;;;;;;;;;;;;;;;10.72;100.00;99366.09;4267159;33;20358;-73
2023/01/02 00:40:06;;;;;;;;;;;;;;;10.67;100.00;99371.41;4246592;33;20342;-73
2023/01/02 00:42:33;;;;;;;;;;;;;;;10.57;100.00;99375.78;4237408;33;19991;-72
2023/01/02 00:44:59;;;;;;;;;;;;;;;10.63;100.00;99369.41;4229050;33;19942;-73
2023/01/02 00:47:25;;;;;;;;;;;;;;;10.56;100.00;99357.97;4232817;33;19957;-72
2023/01/02 00:49:58;;;;;;;;;;;;;;;10.60;100.00;99364.50;4232273;33;19958;-72
2023/01/02 00:52:25;;;;;;;;;;;;;;;10.65;100.00;99367.28;4232432;33;19939;-73
2023/01/02 00:54:51;;;;;;;;;;;;;;;10.61;100.00;99368.81;4231832;33;20298;-73
2023/01/02 00:57:17;;;;;;;;;;;;;;;10.69;100.00;99363.03;4229421;33;19961;-73
2023/01/02 00:59:44;;;;;;;;;;;;;;;10.45;100.00;99351.56;4227377;33;20347;-72
2023/01/02 03:02:30;;;;;;;;;;;;;;;10.17;100.00;99305.56;4324620;28;19964;-72
2023/01/02 03:04:59;;;;;;;;;;;;;;;10.12;100.00;99302.78;4324110;33;19998;-72
2023/01/02 03:07:29;;;;;;;;;;;;;;;10.09;100.00;99297.88;4317034;33;19954;-73
2023/01/02 03:10:15;;;;;;;;;;;;;;;10.10;100.00;99293.28;4309270;33;19944;-72
2023/01/02 03:13:00;;;;;;;;;;;;;;;10.45;100.00;99301.25;4325563;33;20342;-73
2023/01/02 03:15:29;;;;;;;;;;;;;;;10.29;100.00;99299.28;4299669;33;19955;-72
2023/01/02 03:18:01;;;;;;;;;;;;;;;10.34;100.00;99286.00;4294779;33;19966;-73
2023/01/02 03:20:30;;;;;;;;;;;;;;;10.16;100.00;99285.09;4304725;33;20418;-73
2023/01/02 03:22:59;;;;;;;;;;;;;;;10.31;100.00;99270.28;4306992;33;19949;-72
2023/01/02 03:25:26;;;;;;;;;;;;;;;10.22;100.00;99272.53;4300590;33;19959;-72
2023/01/02 03:27:55;;;;;;;;;;;;;;;10.33;100.00;99273.56;4303565;33;19949;-72
2023/01/02 03:30:22;;;;;;;;;;;;;;;10.23;100.00;99267.97;4302375;33;19948;-73
2023/01/02 03:32:51;;;;;;;;;;;;;;;10.25;100.00;99276.63;4303509;33;19975;-72
2023/01/02 03:35:20;;;;;;;;;;;;;;;10.06;100.00;99284.87;4305843;33;19941;-72
2023/01/02 03:37:49;;;;;;;;;;;;;;;10.11;100.00;99287.66;4305843;33;20042;-73
2023/01/02 03:40:21;;;;;;;;;;;;;;;10.17;100.00;99285.91;4305431;33;20039;-73
2023/01/02 03:42:58;;;;;;;;;;;;;;;10.03;100.00;99288.06;4305076;33;19955;-73
2023/01/02 03:45:27;;;;;;;;;;;;;;;9.91;100.00;99271.16;4300659;33;20409;-73
2023/01/02 03:47:59;;;;;;;;;;;;;;;10.14;100.00;99281.00;4317107;33;20381;-73
2023/01/02 03:50:45;;;;;;;;;;;;;;;10.13;100.00;99285.56;4312424;33;19949;-73
2023/01/02 03:53:12;;;;;;;;;;;;;;;9.97;100.00;99294.38;4312911;33;19940;-72
2023/01/02 03:55:40;;;;;;;;;;;;;;;9.97;100.00;99291.69;4315468;33;19957;-73
2023/01/02 03:58:06;;;;;;;;;;;;;;;9.94;100.00;99289.50;4316744;33;19978;-73
2023/01/02 04:00:40;;;;;;;;;;;;;;;9.96;100.00;99284.72;4316491;33;19959;-74
2023/01/02 04:03:12;;;;;;;;;;;;;;;9.95;100.00;99283.06;4313487;33;19960;-73
2023/01/02 04:05:42;;;;;;;;;;;;;;;9.95;100.00;99275.00;4312453;33;19993;-74
2023/01/02 04:08:15;;;;;;;;;;;;;;;10.01;100.00;99284.81;4316662;33;19958;-74
2023/01/02 04:10:43;;;;;;;;;;;;;;;9.96;100.00;99285.50;4312437;33;20296;-73
2023/01/02 04:13:21;;;;;;;;;;;;;;;9.98;100.00;99282.59;4312883;33;19933;-73
2023/01/02 04:15:49;;;;;;;;;;;;;;;10.06;100.00;99284.87;4328459;33;19944;-74
2023/01/02 04:18:24;;;;;;;;;;;;;;;10.24;100.00;99283.87;4312290;33;19953;-73
2023/01/02 04:20:52;;;;;;;;;;;;;;;9.98;100.00;99271.81;4325780;33;19947;-73
2023/01/02 04:23:29;;;;;;;;;;;;;;;10.06;100.00;99266.06;4327724;33;19955;-73
2023/01/02 04:26:06;;;;;;;;;;;;;;;9.94;100.00;99260.72;4327409;33;19962;-74
2023/01/02 04:28:33;;;;;;;;;;;;;;;10.06;100.00;99265.25;4321599;33;20018;-73
2023/01/02 04:30:59;;;;;;;;;;;;;;;9.98;100.00;99266.44;4318524;33;19948;-73
2023/01/02 04:33:27;;;;;;;;;;;;;;;10.10;100.00;99261.84;4319618;33;19985;-74
2023/01/02 04:35:53;;;;;;;;;;;;;;;9.92;100.00;99256.66;4320445;33;19944;-72
2023/01/02 04:38:19;;;;;;;;;;;;;;;9.75;100.00;99254.72;4319247;33;20263;-73
2023/01/02 04:40:51;;;;;;;;;;;;;;;9.79;100.00;99253.16;4319898;33;19944;-73
2023/01/02 04:43:19;;;;;;;;;;;;;;;9.72;100.00;99241.75;4327026;33;20008;-72
2023/01/02 04:45:47;;;;;;;;;;;;;;;9.70;100.00;99248.41;4309996;33;20240;-73
2023/01/02 04:48:13;;;;;;;;;;;;;;;9.63;100.00;99235.09;4310211;33;19970;-73
2023/01/02 04:50:40;;;;;;;;;;;;;;;9.69;100.00;99241.41;4303276;33;20250;-72
2023/01/02 04:53:06;;;;;;;;;;;;;;;9.69;100.00;99242.22;4294799;33;19981;-73
2023/01/02 04:55:32;;;;;;;;;;;;;;;9.77;100.00;99249.91;4299844;33;20726;-73
2023/01/02 04:58:05;;;;;;;;;;;;;;;9.73;100.00;99243.41;4310249;33;19953;-73
2023/01/02 05:00:32;;;;;;;;;;;;;;;9.74;100.00;99239.63;4308982;33;19952;-73
2023/01/02 05:03:00;;;;;;;;;;;;;;;9.77;100.00;99239.16;4309848;33;20376;-72
2023/01/02 05:05:26;;;;;;;;;;;;;;;9.75;100.00;99246.66;4303672;33;19947;-72
2023/01/02 05:07:52;;;;;;;;;;;;;;;10.06;100.00;99233.78;4281286;33;19978;-73
2023/01/02 05:10:19;;;;;;;;;;;;;;;9.89;100.00;99224.84;4281339;33;19959;-73
2023/01/02 05:12:45;;;;;;;;;;;;;;;9.74;100.00;99223.50;4281186;33;19945;-73
2023/01/02 05:15:11;;;;;;;;;;;;;;;9.71;100.00;99223.97;4280310;33;19959;-73
2023/01/02 05:17:38;;;;;;;;;;;;;;;9.80;100.00;99217.16;4291104;33;19988;-73
2023/01/02 05:20:06;;;;;;;;;;;;;;;9.84;100.00;99216.69;4295554;33;20003;-73
2023/01/02 05:25:17;;;;;;;;;;;;;;;9.82;100.00;99215.03;4293859;33;19974;-72
2023/01/02 05:27:43;;;;;;;;;;;;;;;9.86;100.00;99214.56;4295315;33;19957;-73
2023/01/02 05:30:09;;;;;;;;;;;;;;;9.79;100.00;99215.53;4294073;33;19953;-73
2023/01/02 05:32:35;;;;;;;;;;;;;;;9.77;100.00;99209.56;4295347;33;20286;-73
2023/01/02 05:35:02;;;;;;;;;;;;;;;9.64;100.00;99212.56;4294885;33;19995;-73
2023/01/02 05:37:29;;;;;;;;;;;;;;;9.82;100.00;99206.97;4292274;33;19952;-72
2023/01/02 05:39:55;;;;;;;;;;;;;;;9.96;100.00;99209.37;4308072;33;19953;-73
2023/01/02 05:42:21;;;;;;;;;;;;;;;9.95;100.00;99208.56;4309481;33;19952;-73
2023/01/02 05:44:48;;;;;;;;;;;;;;;9.81;100.00;99194.59;4309190;33;19989;-73
2023/01/02 05:47:14;;;;;;;;;;;;;;;9.70;100.00;99184.72;4309187;33;19940;-73
2023/01/02 05:49:40;;;;;;;;;;;;;;;9.73;100.00;99184.25;4294644;33;19944;-72
2023/01/02 05:52:06;;;;;;;;;;;;;;;9.52;100.00;99182.19;4271190;33;20379;-73
2023/01/02 05:54:33;;;;;;;;;;;;;;;9.75;100.00;99182.12;4274197;33;19957;-73
2023/01/02 05:56:59;;;;;;;;;;;;;;;9.73;100.00;99189.62;4265433;33;19941;-73
2023/01/02 05:59:25;;;;;;;;;;;;;;;9.98;100.00;99201.88;4243349;33;20410;-73
2023/01/02 06:01:51;;;;;;;;;;;;;;;9.79;100.00;99199.38;4247096;33;19950;-71
2023/01/02 06:04:18;;;;;;;;;;;;;;;9.68;100.00;99197.56;4245558;33;20728;-71
2023/01/02 06:06:44;;;;;;;;;;;;;;;9.80;100.00;99198.34;4237111;33;20260;-73
2023/01/02 06:09:12;;;;;;;;;;;;;;;9.50;100.00;99200.44;4236906;33;19952;-74
2023/01/02 06:11:38;;;;;;;;;;;;;;;9.63;100.00;99198.28;4237800;33;20041;-72
2023/01/02 06:14:04;;;;;;;;;;;;;;;9.73;100.00;99195.00;4236386;33;19951;-73
2023/01/02 06:16:30;;;;;;;;;;;;;;;9.46;100.00;99194.72;4237204;33;19954;-74
2023/01/02 06:18:57;;;;;;;;;;;;;;;9.54;100.00;99186.28;4238112;33;19977;-73
2023/01/02 06:21:23;;;;;;;;;;;;;;;9.70;100.00;99176.66;4235692;33;19998;-72
2023/01/02 06:23:53;;;;;;;;;;;;;;;9.82;100.00;99177.41;4237260;33;19954;-73
2023/01/02 06:26:19;;;;;;;;;;;;;;;9.75;100.00;99179.44;4235778;33;19956;-73
2023/01/02 06:28:48;;;;;;;;;;;;;;;10.05;100.00;99186.44;4241338;33;19989;-73
2023/01/02 06:31:14;;;;;;;;;;;;;;;9.90;100.00;99183.44;4265524;33;19951;-72
2023/01/02 06:33:41;;;;;;;;;;;;;;;9.62;100.00;99161.72;4265943;33;19950;-73
2023/01/02 06:36:09;;;;;;;;;;;;;;;9.67;100.00;99169.06;4271825;33;20310;-72
2023/01/02 06:38:35;;;;;;;;;;;;;;;9.78;100.00;99160.13;4312229;33;20875;-73
2023/01/02 06:41:02;;;;;;;;;;;;;;;9.71;100.00;99153.25;4323376;33;20273;-73
2023/01/02 06:43:29;;;;;;;;;;;;;;;9.71;100.00;99159.44;4316670;33;19949;-73
2023/01/02 06:45:58;;;;;;;;;;;;;;;9.87;100.00;99148.97;4319530;33;19966;-73
2023/01/02 06:48:26;;;;;;;;;;;;;;;9.54;100.00;99147.81;4318470;33;19963;-73
2023/01/02 06:50:52;;;;;;;;;;;;;;;9.73;100.00;99141.22;4320054;33;19955;-73
2023/01/02 06:53:19;;;;;;;;;;;;;;;9.47;100.00;99141.78;4318217;33;19959;-73
2023/01/02 06:55:55;;;;;;;;;;;;;;;9.62;100.00;99139.37;4302654;33;20000;-74
2023/01/02 06:58:22;;;;;;;;;;;;;;;9.56;100.00;99143.03;4305814;33;19944;-73
2023/01/02 07:00:49;;;;;;;;;;;;;;;9.64;100.00;99148.03;4311021;33;19940;-72
2023/01/02 07:03:15;;;;;;;;;;;;;;;9.65;100.00;99133.50;4305181;33;20016;-73
2023/01/02 07:05:41;;;;;;;;;;;;;;;9.54;100.00;99137.91;4304425;33;20328;-72
2023/01/02 07:08:08;;;;;;;;;;;;;;;9.75;100.00;99139.09;4300536;33;20338;-72
2023/01/02 07:10:34;;;;;;;;;;;;;;;9.61;100.00;99143.12;4303645;33;20009;-73
2023/01/02 07:13:01;;;;;;;;;;;;;;;9.75;100.00;99149.84;4303081;33;20358;-72
2023/01/02 07:15:27;;;;;;;;;;;;;;;9.60;100.00;99149.56;4302602;33;19984;-73
2023/01/02 07:17:54;;;;;;;;;;;;;;;9.58;100.00;99143.62;4301848;33;19961;-72
2023/01/02 07:20:20;;;;;;;;;;;;;;;9.69;100.00;99140.06;4301555;33;19948;-73
2023/01/02 07:22:50;;;;;;;;;;;;;;;9.77;100.00;99142.34;4302760;33;19984;-73
2023/01/02 07:25:17;;;;;;;;;;;;;;;9.70;100.00;99141.69;4302315;33;20010;-73
2023/01/02 07:27:43;;;;;;;;;;;;;;;9.76;100.00;99138.03;4302524;33;19966;-73
2023/01/02 07:30:09;;;;;;;;;;;;;;;9.69;100.00;99140.06;4303951;33;19954;-73
2023/01/02 07:32:36;;;;;;;;;;;;;;;9.59;100.00;99134.50;4299865;33;19945;-74
2023/01/02 07:35:02;;;;;;;;;;;;;;;9.74;100.00;99132.06;4288288;33;19993;-73
2023/01/02 07:37:28;;;;;;;;;;;;;;;9.77;100.00;99136.97;4288458;33;20299;-73
2023/01/02 07:39:54;;;;;;;;;;;;;;;9.90;100.00;99132.34;4292099;33;20009;-72
2023/01/02 07:42:20;;;;;;;;;;;;;;;9.97;100.00;99136.53;4293921;33;20028;-72
2023/01/02 07:44:47;;;;;;;;;;;;;;;9.74;100.00;99142.81;4294258;33;20015;-73
2023/01/02 07:47:13;;;;;;;;;;;;;;;9.90;100.00;99151.19;4287773;33;19971;-73
2023/01/02 07:49:39;;;;;;;;;;;;;;;9.94;100.00;99153.16;4289749;33;19975;-73
2023/01/02 07:52:09;;;;;;;;;;;;;;;9.86;100.00;99155.41;4296243;33;19953;-74
2023/01/02 07:54:35;;;;;;;;;;;;;;;9.95;100.00;99156.63;4308143;33;19944;-74
2023/01/02 07:57:02;;;;;;;;;;;;;;;9.95;100.00;99148.56;4312357;33;20103;-73
2023/01/02 07:59:28;;;;;;;;;;;;;;;9.75;100.00;99149.84;4280926;33;20615;-73
2023/01/02 08:01:54;;;;;;;;;;;;;;;9.77;100.00;99147.72;4292999;33;20080;-74
2023/01/02 08:04:20;;;;;;;;;;;;;;;10.04;100.00;99146.31;4293349;33;19963;-76
2023/01/02 08:06:47;;;;;;;;;;;;;;;9.95;100.00;99141.31;4281909;33;20090;-74
2023/01/02 08:09:13;;;;;;;;;;;;;;;9.91;100.00;99152.81;4282234;33;20136;-74
2023/01/02 08:11:39;;;;;;;;;;;;;;;10.02;100.00;99137.66;4296348;33;19949;-74
2023/01/02 08:14:05;;;;;;;;;;;;;;;10.03;100.00;99132.03;4295920;33;19996;-75
2023/01/02 08:16:32;;;;;;;;;;;;;;;10.20;100.00;99134.75;4294326;33;19967;-74
2023/01/02 08:18:58;;;;;;;;;;;;;;;10.09;100.00;99133.75;4294733;33;19941;-76
2023/01/02 08:21:25;;;;;;;;;;;;;;;10.07;100.00;99119.72;4295515;33;19956;-75
2023/01/02 08:23:51;;;;;;;;;;;;;;;10.50;100.00;99142.50;4296236;33;19942;-75
2023/01/02 08:26:19;;;;;;;;;;;;;;;10.45;100.00;99141.59;4292930;33;20361;-74
2023/01/02 08:28:45;;;;;;;;;;;;;;;10.60;100.00;99149.09;4284557;33;19959;-75
2023/01/02 08:31:16;;;;;;;;;;;;;;;10.60;100.00;99154.50;4303732;33;19941;-75
2023/01/02 08:33:43;;;;;;;;;;;;;;;10.63;100.00;99154.81;4269511;33;19953;-76
2023/01/02 08:36:10;;;;;;;;;;;;;;;10.49;100.00;99143.56;4296320;33;19941;-74
2023/01/02 08:38:36;;;;;;;;;;;;;;;10.83;100.00;99143.53;4294575;33;19947;-83
2023/01/02 08:41:03;;;;;;;;;;;;;;;10.64;100.00;99142.16;4261371;33;19959;-79
2023/01/02 08:43:31;;;;;;;;;;;;;;;10.87;100.00;99143.84;4264893;33;19951;-85
2023/01/02 08:46:01;;;;;;;;;;;;;;;10.88;100.00;99143.59;4262155;33;20453;-79
2023/01/02 08:48:27;;;;;;;;;;;;;;;10.89;100.00;99147.87;4265625;33;19991;-77
2023/01/02 08:50:53;;;;;;;;;;;;;;;11.09;100.00;99157.31;4264538;33;19957;-77
2023/01/02 08:53:19;;;;;;;;;;;;;;;11.09;100.00;99157.31;4263021;33;19952;-80
2023/01/02 08:55:46;;;;;;;;;;;;;;;11.04;100.00;99160.78;4263052;33;19989;-77
2023/01/02 08:58:12;;;;;;;;;;;;;;;11.01;100.00;99149.66;4264227;33;20052;-76
2023/01/02 09:00:38;;;;;;;;;;;;;;;11.22;100.00;99154.25;4265953;33;19953;-75
2023/01/02 09:03:05;;;;;;;;;;;;;;;11.37;100.00;99152.81;4266531;33;20004;-75
2023/01/02 09:05:31;;;;;;;;;;;;;;;11.52;100.00;99150.28;4264224;33;20295;-75
2023/01/02 09:07:57;;;;;;;;;;;;;;;11.41;100.00;99153.94;4266710;33;20358;-74
2023/01/02 09:10:24;;;;;;;;;;;;;;;11.53;100.00;99151.09;4263499;33;19956;-74
2023/01/02 09:12:50;;;;;;;;;;;;;;;11.36;100.00;99145.78;4249617;33;19946;-74
2023/01/02 09:15:16;;;;;;;;;;;;;;;11.39;100.00;99145.28;4256256;33;19945;-74
2023/01/02 09:17:44;;;;;;;;;;;;;;;11.73;100.00;99151.31;4252999;33;19948;-75
2023/01/02 09:20:10;;;;;;;;;;;;;;;11.64;100.00;99145.56;4258087;33;20011;-76
2023/01/02 09:22:36;;;;;;;;;;;;;;;11.75;100.00;99151.06;4259175;33;19948;-74
2023/01/02 09:25:03;;;;;;;;;;;;;;;11.88;100.00;99141.75;4256554;33;20219;-74
2023/01/02 09:27:29;;;;;;;;;;;;;;;11.86;100.00;99149.28;4259220;33;19942;-74
2023/01/02 09:29:55;;;;;;;;;;;;;;;11.67;100.00;99146.13;4257418;33;19954;-75
2023/01/02 09:32:22;;;;;;;;;;;;;;;11.76;100.00;99144.62;4259724;33;20054;-76
2023/01/02 09:34:49;;;;;;;;;;;;;;;11.89;100.00;99138.78;4258570;33;19949;-76
2023/01/02 09:37:16;;;;;;;;;;;;;;;11.80;100.00;99135.72;4267771;33;19951;-75
2023/01/02 09:39:43;;;;;;;;;;;;;;;12.00;100.00;99137.03;4267676;33;19946;-76
2023/01/02 09:42:13;;;;;;;;;;;;;;;11.99;100.00;99130.81;4262818;33;20241;-77
2023/01/02 09:44:51;;;;;;;;;;;;;;;12.05;100.00;99125.47;4295195;33;20058;-74
2023/01/02 09:47:24;;;;;;;;;;;;;;;12.14;100.00;99126.63;4306087;33;20443;-74
2023/01/02 09:49:51;;;;;;;;;;;;;;;11.94;100.00;99136.16;4318107;33;19954;-75
2023/01/02 09:52:21;;;;;;;;;;;;;;;12.08;100.00;99131.16;4318353;33;19995;-75
2023/01/02 09:54:47;;;;;;;;;;;;;;;12.01;100.00;99122.47;4316228;33;20005;-75
2023/01/02 09:57:25;;;;;;;;;;;;;;;12.16;100.00;99117.19;4319319;33;19995;-75
2023/01/02 09:59:56;;;;;;;;;;;;;;;12.27;100.00;99117.25;4315081;33;19952;-77
2023/01/02 10:02:38;;;;;;;;;;;;;;;12.07;100.00;99120.62;4316850;33;19974;-74
2023/01/02 10:05:13;;;;;;;;;;;;;;;12.09;100.00;99115.78;4318716;33;19962;-74
2023/01/02 10:07:48;;;;;;;;;;;;;;;12.27;100.00;99118.09;4317941;33;19970;-76
2023/01/02 10:10:33;;;;;;;;;;;;;;;12.19;100.00;99115.88;4313063;33;19990;-76
2023/01/02 10:13:02;;;;;;;;;;;;;;;12.37;100.00;99111.94;4320484;33;19966;-75
2023/01/02 10:15:30;;;;;;;;;;;;;;;12.33;100.00;99106.25;4323182;33;19948;-75
2023/01/02 10:18:12;;;;;;;;;;;;;;;12.42;100.00;99109.28;4284290;33;19961;-74
2023/01/02 10:20:41;;;;;;;;;;;;;;;12.56;100.00;99096.16;4285565;33;20363;-74
2023/01/02 10:23:16;;;;;;;;;;;;;;;12.71;100.00;99101.63;4283690;33;19963;-75
2023/01/02 10:25:50;;;;;;;;;;;;;;;12.81;100.00;99100.06;4284274;33;19979;-74
2023/01/02 10:28:27;;;;;;;;;;;;;;;12.62;100.00;99092.41;4286849;33;19968;-75
2023/01/02 10:30:58;;;;;;;;;;;;;;;12.57;100.00;99100.47;4280911;33;19957;-74
2023/01/02 10:33:38;;;;;;;;;;;;;;;12.62;100.00;99092.41;4281553;33;19963;-73
2023/01/02 10:36:09;;;;;;;;;;;;;;;12.69;100.00;99082.16;4292011;33;19941;-73
2023/01/02 10:38:36;;;;;;;;;;;;;;;12.62;100.00;99084.31;4283370;33;19950;-72
2023/01/02 10:41:03;;;;;;;;;;;;;;;12.78;100.00;99079.78;4283411;33;19946;-73
2023/01/02 10:43:33;;;;;;;;;;;;;;;12.79;100.00;99075.19;4291406;33;19984;-74
2023/01/02 10:46:01;;;;;;;;;;;;;;;13.04;100.00;99083.41;4285320;33;20334;-74
2023/01/02 10:48:28;;;;;;;;;;;;;;;13.16;100.00;99068.84;4289210;33;20559;-72
2023/01/02 10:50:59;;;;;;;;;;;;;;;13.06;100.00;99065.03;4280184;33;19974;-73
2023/01/02 10:53:30;;;;;;;;;;;;;;;12.96;100.00;99059.59;4251237;33;19958;-73
2023/01/02 10:56:00;;;;;;;;;;;;;;;13.08;100.00;99060.19;4250199;33;19962;-72
2023/01/02 10:58:27;;;;;;;;;;;;;;;12.79;100.00;99059.78;4253918;33;20023;-73
2023/01/02 11:01:06;;;;;;;;;;;;;;;12.84;100.00;99059.00;4256498;33;19987;-74
2023/01/02 11:03:32;;;;;;;;;;;;;;;12.86;100.00;99060.38;4256759;33;19966;-73
2023/01/02 11:05:59;;;;;;;;;;;;;;;12.85;100.00;99060.62;4257800;33;19950;-73
2023/01/02 11:08:36;;;;;;;;;;;;;;;12.93;100.00;99057.41;4261026;33;19971;-73
2023/01/02 11:11:13;;;;;;;;;;;;;;;13.15;100.00;99056.44;4259856;33;19962;-72
2023/01/02 11:13:44;;;;;;;;;;;;;;;13.21;100.00;99063.44;4259743;33;19945;-73
2023/01/02 11:16:12;;;;;;;;;;;;;;;13.17;100.00;99059.66;4259636;33;19942;-73
2023/01/02 11:18:38;;;;;;;;;;;;;;;13.27;100.00;99049.69;4258206;33;19993;-73
2023/01/02 11:21:06;;;;;;;;;;;;;;;13.41;100.00;99039.19;4258823;33;19996;-72
2023/01/02 11:23:36;;;;;;;;;;;;;;;13.27;100.00;99043.47;4258624;33;19945;-72
2023/01/02 11:26:03;;;;;;;;;;;;;;;13.21;100.00;99033.72;4257869;33;19955;-73
2023/01/02 11:28:31;;;;;;;;;;;;;;;13.25;100.00;99034.81;4268471;33;20463;-73
2023/01/02 11:31:02;;;;;;;;;;;;;;;13.12;100.00;99027.22;4296607;33;20031;-72
2023/01/02 11:33:30;;;;;;;;;;;;;;;13.17;100.00;99027.22;4321455;33;20020;-73
2023/01/02 11:35:56;;;;;;;;;;;;;;;13.12;100.00;99029.91;4305111;33;19956;-73
2023/01/02 11:38:25;;;;;;;;;;;;;;;13.08;100.00;99025.03;4303806;33;19937;-74
2023/01/02 11:40:59;;;;;;;;;;;;;;;13.39;100.00;99041.34;4304876;33;20006;-73
2023/01/02 11:43:50;;;;;;;;;;;;;;;13.31;100.00;99044.56;4306531;33;19937;-73
2023/01/02 11:46:19;;;;;;;;;;;;;;;13.18;100.00;99045.06;4299115;33;19974;-73
2023/01/02 11:48:46;;;;;;;;;;;;;;;13.12;100.00;99052.34;4304974;33;19951;-73
2023/01/02 11:51:16;;;;;;;;;;;;;;;13.44;100.00;99067.59;4300887;33;20411;-72
2023/01/02 11:53:45;;;;;;;;;;;;;;;13.73;100.00;99067.91;4300398;33;19936;-73
2023/01/02 11:56:18;;;;;;;;;;;;;;;13.85;100.00;99056.00;4304422;33;20330;-73
2023/01/02 11:58:57;;;;;;;;;;;;;;;13.90;100.00;99056.03;4305501;33;20061;-73
2023/01/02 12:01:43;;;;;;;;;;;;;;;13.89;100.00;99038.16;4474695;28;21860;-72
2023/01/02 12:04:09;;;;;;;;;;;;;;;13.71;100.00;99032.19;4291744;33;20313;-72
2023/01/02 12:06:36;;;;;;;;;;;;;;;13.76;100.00;99029.47;4292695;33;19981;-72
2023/01/02 12:09:12;;;;;;;;;;;;;;;14.07;100.00;99034.91;4287862;33;20018;-73
2023/01/02 12:11:57;;;;;;;;;;;;;;;14.01;100.00;99030.56;4293221;33;19968;-72
2023/01/02 12:14:33;;;;;;;;;;;;;;;14.01;100.00;99030.56;4297480;33;20098;-75
2023/01/02 12:17:06;;;;;;;;;;;;;;;14.32;100.00;99025.09;4283755;33;19965;-74
2023/01/02 12:19:47;;;;;;;;;;;;;;;14.33;100.00;99015.91;4292109;33;19971;-74
2023/01/02 12:22:31;;;;;;;;;;;;;;;14.39;100.00;99008.56;4295380;33;19948;-76
2023/01/02 12:25:06;;;;;;;;;;;;;;;14.49;100.00;99009.34;4283590;33;19948;-74
2023/01/02 12:27:40;;;;;;;;;;;;;;;14.35;100.00;99002.87;4275387;33;20359;-74
2023/01/02 12:30:14;;;;;;;;;;;;;;;14.43;100.00;98994.19;4265928;33;19997;-74
2023/01/02 12:33:00;;;;;;;;;;;;;;;14.38;100.00;98996.91;4267631;33;20283;-75
2023/01/02 12:35:28;;;;;;;;;;;;;;;14.26;100.00;98991.78;4266613;33;20292;-75
2023/01/02 12:37:57;;;;;;;;;;;;;;;14.50;100.00;98978.47;4264907;33;19942;-74
2023/01/02 12:40:23;;;;;;;;;;;;;;;14.61;100.00;98983.84;4257633;33;19955;-74
2023/01/02 12:43:15;;;;;;;;;;;;;;;14.66;100.00;99000.91;4266576;33;19960;-74
2023/01/02 12:45:41;;;;;;;;;;;;;;;14.68;100.00;98995.22;4246708;33;19949;-73
2023/01/02 12:48:26;;;;;;;;;;;;;;;14.88;100.00;98995.09;4262854;33;19945;-73
2023/01/02 12:50:59;;;;;;;;;;;;;;;14.73;100.00;98995.19;4265938;33;19956;-73
2023/01/02 12:53:38;;;;;;;;;;;;;;;15.00;100.00;99002.13;4264683;33;20015;-74
2023/01/02 12:56:04;;;;;;;;;;;;;;;14.97;100.00;99008.09;4230402;33;19942;-76
2023/01/02 12:58:36;;;;;;;;;;;;;;;15.05;100.00;98999.38;4245210;33;19956;-75
2023/01/02 13:01:12;;;;;;;;;;;;;;;14.92;100.00;98995.37;4262542;33;19945;-76
2023/01/02 13:03:43;;;;;;;;;;;;;;;14.99;100.00;98993.16;4271525;33;19965;-74
2023/01/02 13:06:16;;;;;;;;;;;;;;;15.19;100.00;98986.81;4273618;33;19950;-74
2023/01/02 13:08:42;;;;;;;;;;;;;;;15.06;100.00;98979.28;4246266;33;19956;-75
2023/01/02 13:11:10;;;;;;;;;;;;;;;15.09;100.00;98984.16;4251903;33;20300;-75
2023/01/02 13:13:37;;;;;;;;;;;;;;;15.19;100.00;98984.09;4264707;33;19971;-74
2023/01/02 13:16:05;;;;;;;;;;;;;;;15.36;100.00;98988.31;4264161;33;19990;-75
2023/01/02 13:18:46;;;;;;;;;;;;;;;15.37;100.00;98979.09;4254921;33;19963;-75
2023/01/02 13:21:34;;;;;;;;;;;;;;;15.15;100.00;98976.81;4254606;33;19971;-74
2023/01/02 13:24:00;;;;;;;;;;;;;;;15.26;100.00;98979.16;4257915;33;19999;-74
2023/01/02 13:26:29;;;;;;;;;;;;;;;15.23;100.00;98977.00;4249233;33;19996;-75
2023/01/02 13:29:07;;;;;;;;;;;;;;;14.99;100.00;98979.59;4270876;33;19991;-74
2023/01/02 13:31:35;;;;;;;;;;;;;;;15.15;100.00;98972.19;4271051;33;19957;-74
2023/01/02 13:34:12;;;;;;;;;;;;;;;15.29;100.00;98977.00;4269458;33;20251;-74
2023/01/02 13:36:46;;;;;;;;;;;;;;;15.15;100.00;98972.19;4268737;33;20084;-73
2023/01/02 13:39:15;;;;;;;;;;;;;;;14.93;100.00;98986.13;4268340;33;19949;-73
2023/01/02 13:44:45;;;;;;;;;;;;;;;14.78;100.00;99000.59;4255248;33;20023;-74
2023/01/02 13:47:17;;;;;;;;;;;;;;;14.69;100.00;98994.13;4250747;33;19969;-74
2023/01/02 13:49:47;;;;;;;;;;;;;;;14.75;100.00;98993.00;4258724;33;20004;-74
2023/01/02 13:52:14;;;;;;;;;;;;;;;14.59;100.00;98996.84;4257524;33;19952;-75
2023/01/02 13:55:00;;;;;;;;;;;;;;;14.66;100.00;98994.66;4256519;33;19961;-74
2023/01/02 13:57:27;;;;;;;;;;;;;;;14.76;100.00;98991.94;4292764;33;19962;-75
2023/01/02 13:59:57;;;;;;;;;;;;;;;14.36;100.00;98977.44;4300789;33;19958;-75
2023/01/02 14:02:23;;;;;;;;;;;;;;;14.16;100.00;98952.00;4283537;33;20098;-74
2023/01/02 14:04:50;;;;;;;;;;;;;;;14.54;100.00;98974.09;4286408;33;19949;-75
2023/01/02 14:07:24;;;;;;;;;;;;;;;14.61;100.00;98970.31;4287478;33;19967;-75
2023/01/02 14:10:13;;;;;;;;;;;;;;;14.51;100.00;98966.53;4273382;33;19959;-76
2023/01/02 14:12:48;;;;;;;;;;;;;;;14.44;100.00;98957.06;4269003;33;20355;-75
2023/01/02 14:15:16;;;;;;;;;;;;;;;14.56;100.00;98976.53;4273107;33;19945;-76
2023/01/02 14:17:51;;;;;;;;;;;;;;;14.44;100.00;98974.16;4274984;33;19960;-77
2023/01/02 14:20:17;;;;;;;;;;;;;;;14.52;100.00;98978.19;4279384;33;19961;-74
2023/01/02 14:22:51;;;;;;;;;;;;;;;14.27;100.00;98987.19;4277101;33;19949;-74
2023/01/02 14:25:19;;;;;;;;;;;;;;;14.29;100.00;98982.31;4238223;33;19956;-75
2023/01/02 14:27:53;;;;;;;;;;;;;;;14.15;100.00;98973.94;4238026;33;19960;-75
2023/01/02 14:30:31;;;;;;;;;;;;;;;14.19;100.00;98976.94;4239032;33;19946;-75
2023/01/02 14:32:58;;;;;;;;;;;;;;;14.14;100.00;98970.44;4234655;33;19981;-75
2023/01/02 14:35:29;;;;;;;;;;;;;;;14.19;100.00;98960.69;4262553;33;19956;-76
2023/01/02 14:38:05;;;;;;;;;;;;;;;14.21;100.00;98958.50;4264167;33;19975;-75
2023/01/02 14:40:34;;;;;;;;;;;;;;;14.16;100.00;98970.97;4258923;33;19946;-74
2023/01/02 14:45:54;;;;;;;;;;;;;;;14.12;100.00;98967.19;4236314;33;19957;-74
2023/01/02 14:48:22;;;;;;;;;;;;;;;13.97;100.00;98965.31;4237605;33;19979;-76
2023/01/02 14:50:49;;;;;;;;;;;;;;;13.96;100.00;98973.72;4223001;33;20367;-75
2023/01/02 14:53:15;;;;;;;;;;;;;;;13.83;100.00;98979.69;4216796;34;19976;-76
2023/01/02 14:55:42;;;;;;;;;;;;;;;13.90;100.00;98991.06;4206507;34;19954;-74
2023/01/02 14:58:23;;;;;;;;;;;;;;;13.63;100.00;98992.16;4215077;34;20384;-74
2023/01/02 15:00:50;;;;;;;;;;;;;;;13.99;100.00;98989.41;4211035;34;19948;-73